createdAt,value
2022-09-18T00:01:39.674Z,5.20
2022-09-18T00:04:42.988Z,7.00
2022-09-18T00:07:46.553Z,7.00
2022-09-18T00:10:51.243Z,6.00
2022-09-18T00:13:54.627Z,6.00
2022-09-18T00:16:57.880Z,6.00
2022-09-18T00:20:01.130Z,5.20
2022-09-18T00:23:05.815Z,6.00
2022-09-18T00:26:12.427Z,5.75
2022-09-18T00:29:18.094Z,6.75
2022-09-18T00:32:21.717Z,6.00
2022-09-18T00:35:25.204Z,5.25
2022-09-18T00:38:28.533Z,4.25
2022-09-18T00:41:35.691Z,6.00
2022-09-18T00:44:41.992Z,5.00
2022-09-18T00:47:49.467Z,6.00
2022-09-18T00:50:53.816Z,5.00
2022-09-18T00:54:08.096Z,4.00
2022-09-18T00:57:17.130Z,4.67
2022-09-18T01:00:20.501Z,5.00
2022-09-18T01:03:24.351Z,5.00
2022-09-18T01:06:34.714Z,5.00
2022-09-18T01:09:48.390Z,4.40
2022-09-18T01:12:57.999Z,4.50
2022-09-18T01:16:08.247Z,4.00
2022-09-18T01:19:24.061Z,4.00
2022-09-18T01:22:37.192Z,4.20
2022-09-18T01:25:57.011Z,5.00
2022-09-18T01:29:09.960Z,5.00
2022-09-18T01:32:21.573Z,4.00
2022-09-18T01:35:47.179Z,5.00
2022-09-18T01:38:56.864Z,4.25
2022-09-18T01:42:03.489Z,6.00
2022-09-18T01:45:11.811Z,3.80
2022-09-18T01:48:20.902Z,4.20
2022-09-18T01:51:30.221Z,5.60
2022-09-18T01:54:38.928Z,7.00
2022-09-18T01:57:49.430Z,6.00
2022-09-18T02:00:58.523Z,6.00
2022-09-18T02:04:07.486Z,5.60
2022-09-18T02:07:17.956Z,6.00
2022-09-18T02:10:24.486Z,6.00
2022-09-18T02:13:33.359Z,5.80
2022-09-18T02:16:45.500Z,4.00
2022-09-18T02:19:53.821Z,6.00
2022-09-18T02:23:04.522Z,6.00
2022-09-18T02:26:12.519Z,5.50
2022-09-18T02:29:18.219Z,5.60
2022-09-18T02:32:23.229Z,6.80
2022-09-18T02:35:39.158Z,5.25
2022-09-18T02:38:50.389Z,6.00
2022-09-18T02:42:09.323Z,6.60
2022-09-18T02:45:26.949Z,6.20
2022-09-18T02:48:48.750Z,5.00
2022-09-18T02:51:58.892Z,7.00
2022-09-18T02:55:10.338Z,6.00
2022-09-18T02:58:18.777Z,6.00
2022-09-18T03:01:27.627Z,6.00
2022-09-18T03:04:34.320Z,6.00
2022-09-18T03:07:40.567Z,6.00
2022-09-18T03:10:44.020Z,8.00
2022-09-18T03:13:47.541Z,6.00
2022-09-18T03:16:51.058Z,5.75
2022-09-18T03:19:55.902Z,5.00
2022-09-18T03:22:59.861Z,6.00
2022-09-18T03:26:03.220Z,7.00
2022-09-18T03:29:09.066Z,5.60
2022-09-18T03:32:14.118Z,5.60
2022-09-18T03:35:23.514Z,7.00
2022-09-18T03:38:26.847Z,7.33
2022-09-18T03:41:34.090Z,6.00
2022-09-18T03:44:37.728Z,7.50
2022-09-18T03:47:49.304Z,6.20
2022-09-18T03:50:54.202Z,8.00
2022-09-18T03:53:58.978Z,6.50
2022-09-18T03:57:17.639Z,6.00
2022-09-18T04:00:42.128Z,6.00
2022-09-18T04:03:53.231Z,6.40
2022-09-18T04:07:16.908Z,5.25
2022-09-18T04:10:49.582Z,6.00
2022-09-18T04:13:52.820Z,6.00
2022-09-18T04:16:56.142Z,4.00
2022-09-18T04:19:59.492Z,5.00
2022-09-18T04:23:05.575Z,5.00
2022-09-18T04:26:12.547Z,4.00
2022-09-18T04:29:23.208Z,4.20
2022-09-18T04:32:27.288Z,4.00
2022-09-18T04:35:30.599Z,6.00
2022-09-18T04:38:35.294Z,7.20
2022-09-18T04:41:38.974Z,7.20
2022-09-18T04:44:42.529Z,7.50
2022-09-18T04:47:49.759Z,7.00
2022-09-18T04:50:55.905Z,7.40
2022-09-18T04:54:00.983Z,8.40
2022-09-18T04:57:04.381Z,7.00
2022-09-18T05:00:15.821Z,8.00
2022-09-18T05:03:19.581Z,7.40
2022-09-18T05:06:24.454Z,7.60
2022-09-18T05:09:28.023Z,7.00
2022-09-18T05:12:31.370Z,7.00
2022-09-18T05:15:36.105Z,7.80
2022-09-18T05:18:41.241Z,5.50
2022-09-18T05:21:44.745Z,9.00
2022-09-18T05:24:48.881Z,8.00
2022-09-18T05:27:55.412Z,6.00
2022-09-18T05:31:02.331Z,8.60
2022-09-18T05:34:20.137Z,7.00
2022-09-18T05:37:23.586Z,7.00
2022-09-18T05:40:33.463Z,6.00
2022-09-18T05:43:37.378Z,6.00
2022-09-18T05:46:48.511Z,6.00
2022-09-18T05:49:53.369Z,5.80
2022-09-18T05:53:01.720Z,4.00
2022-09-18T05:56:11.320Z,5.00
2022-09-18T05:59:15.055Z,6.00
2022-09-18T06:02:23.110Z,5.00
2022-09-18T06:05:38.832Z,5.40
2022-09-18T06:08:42.200Z,4.20
2022-09-18T06:11:45.558Z,5.25
2022-09-18T06:14:48.854Z,5.00
2022-09-18T06:17:54.533Z,5.00
2022-09-18T06:21:01.694Z,5.00
2022-09-18T06:24:06.899Z,6.00
2022-09-18T06:27:36.256Z,6.00
2022-09-18T06:30:39.520Z,6.00
2022-09-18T06:33:44.150Z,7.00
2022-09-18T06:36:47.451Z,6.80
2022-09-18T06:40:01.279Z,5.00
2022-09-18T06:43:24.247Z,7.00
2022-09-18T06:46:50.777Z,5.75
2022-09-18T06:50:06.791Z,5.00
2022-09-18T06:53:12.656Z,6.40
2022-09-18T06:56:26.076Z,5.00
2022-09-18T06:59:31.199Z,7.00
2022-09-18T07:02:34.543Z,6.60
2022-09-18T07:05:59.148Z,6.00
2022-09-18T07:09:17.174Z,6.00
2022-09-18T07:12:30.583Z,5.00
2022-09-18T07:15:35.788Z,6.00
2022-09-18T07:18:42.427Z,4.00
2022-09-18T07:21:50.010Z,6.00
2022-09-18T07:24:53.954Z,6.00
2022-09-18T07:28:04.289Z,4.80
2022-09-18T07:31:08.789Z,7.00
2022-09-18T07:34:13.394Z,5.00
2022-09-18T07:37:19.256Z,4.00
2022-09-18T07:40:31.022Z,5.00
2022-09-18T07:43:43.162Z,4.80
2022-09-18T07:46:47.211Z,3.00
2022-09-18T07:49:50.790Z,4.00
2022-09-18T07:52:58.554Z,4.00
2022-09-18T07:56:09.212Z,4.00
2022-09-18T07:59:12.648Z,4.00
2022-09-18T08:02:16.295Z,4.00
2022-09-18T08:05:20.735Z,3.50
2022-09-18T08:08:31.211Z,5.00
2022-09-18T08:11:45.642Z,4.40
2022-09-18T08:15:21.128Z,5.00
2022-09-18T08:18:51.091Z,4.00
2022-09-18T08:22:14.986Z,5.00
2022-09-18T08:25:26.681Z,5.25
2022-09-18T08:28:31.997Z,3.00
2022-09-18T08:31:37.604Z,3.50
2022-09-18T08:34:44.279Z,4.00
2022-09-18T08:37:50.630Z,3.00
2022-09-18T08:41:40.397Z,4.40
2022-09-18T08:44:49.827Z,4.00
2022-09-18T08:47:59.393Z,4.00
2022-09-18T08:51:11.128Z,3.00
2022-09-18T08:54:22.154Z,4.00
2022-09-18T08:57:49.126Z,5.60
2022-09-18T09:01:08.049Z,4.00
2022-09-18T09:04:19.925Z,5.00
2022-09-18T09:07:39.773Z,4.20
2022-09-18T09:10:51.992Z,4.40
2022-09-18T09:14:45.839Z,4.00
2022-09-18T09:17:54.243Z,4.00
2022-09-18T09:21:11.955Z,4.00
2022-09-18T09:24:31.368Z,3.60
2022-09-18T09:27:46.407Z,5.00
2022-09-18T09:31:21.291Z,4.00
2022-09-18T09:34:59.224Z,4.00
2022-09-18T09:38:31.043Z,3.00
2022-09-18T09:41:39.939Z,4.00
2022-09-18T09:44:49.809Z,3.25
2022-09-18T09:48:02.759Z,2.00
2022-09-18T09:51:15.350Z,4.00
2022-09-18T09:54:19.915Z,3.60
2022-09-18T09:57:29.102Z,4.00
2022-09-18T10:00:39.760Z,2.60
2022-09-18T10:04:01.032Z,2.00
2022-09-18T10:07:19.180Z,3.00
2022-09-18T10:10:33.166Z,3.00
2022-09-18T10:13:43.180Z,4.00
2022-09-18T10:16:49.729Z,3.00
2022-09-18T10:19:55.451Z,2.80
2022-09-18T10:23:04.888Z,4.75
2022-09-18T10:26:15.452Z,4.00
2022-09-18T10:29:19.836Z,4.00
2022-09-18T10:32:36.270Z,3.25
2022-09-18T10:35:49.301Z,2.60
2022-09-18T10:38:53.537Z,2.00
2022-09-18T10:42:06.281Z,2.60
2022-09-18T10:45:24.968Z,3.00
2022-09-18T10:48:32.739Z,2.00
2022-09-18T10:51:37.449Z,3.00
2022-09-18T10:54:40.842Z,3.80
2022-09-18T10:58:01.629Z,3.00
2022-09-18T11:01:08.466Z,4.00
2022-09-18T11:04:18.350Z,2.60
2022-09-18T11:07:26.033Z,4.00
2022-09-18T11:10:33.126Z,3.00
2022-09-18T11:13:44.940Z,3.00
2022-09-18T11:16:56.284Z,4.00
2022-09-18T11:20:03.352Z,2.00
2022-09-18T11:23:33.204Z,2.75
2022-09-18T11:26:49.422Z,3.00
2022-09-18T11:29:53.479Z,4.40
2022-09-18T11:33:02.680Z,4.00
2022-09-18T11:36:11.758Z,2.60
2022-09-18T11:39:24.794Z,3.00
2022-09-18T11:42:31.931Z,3.00
2022-09-18T11:45:54.469Z,3.00
2022-09-18T11:49:05.020Z,4.50
2022-09-18T11:52:16.154Z,2.00
2022-09-18T11:55:34.868Z,3.00
2022-09-18T11:58:44.893Z,2.60
2022-09-18T12:01:53.995Z,2.00
2022-09-18T12:05:08.015Z,3.00
2022-09-18T12:08:19.393Z,4.00
2022-09-18T12:11:36.623Z,2.00
2022-09-18T12:14:46.142Z,1.80
2022-09-18T12:17:57.564Z,2.00
2022-09-18T12:21:10.360Z,2.00
2022-09-18T12:24:17.663Z,3.00
2022-09-18T12:27:32.664Z,2.40
2022-09-18T12:30:46.450Z,2.40
2022-09-18T12:33:58.592Z,3.20
2022-09-18T12:37:20.846Z,2.00
2022-09-18T12:40:37.525Z,4.00
2022-09-18T12:43:59.209Z,3.00
2022-09-18T12:47:22.727Z,5.75
2022-09-18T12:50:53.890Z,3.00
2022-09-18T12:54:11.769Z,3.00
2022-09-18T12:57:27.503Z,3.00
2022-09-18T13:00:32.398Z,3.40
2022-09-18T13:03:39.874Z,2.00
2022-09-18T13:06:48.871Z,4.00
2022-09-18T13:09:56.724Z,3.00
2022-09-18T13:13:06.402Z,3.33
2022-09-18T13:16:16.507Z,3.40
2022-09-18T13:19:24.293Z,2.00
2022-09-18T13:22:34.686Z,3.00
2022-09-18T13:25:40.510Z,3.60
2022-09-18T13:28:45.488Z,3.00
2022-09-18T13:31:54.491Z,2.00
2022-09-18T13:35:00.671Z,2.00
2022-09-18T13:38:16.860Z,2.00
2022-09-18T13:41:20.548Z,2.40
2022-09-18T13:44:27.401Z,3.00
2022-09-18T13:47:32.719Z,3.00
2022-09-18T13:50:37.459Z,3.00
2022-09-18T13:53:42.948Z,2.80
2022-09-18T13:57:21.683Z,2.00
2022-09-18T14:00:46.115Z,3.00
2022-09-18T14:03:50.929Z,3.00
2022-09-18T14:06:54.463Z,2.60
2022-09-18T14:10:03.942Z,3.00
2022-09-18T14:13:31.675Z,2.80
2022-09-18T14:16:41.452Z,3.00
2022-09-18T14:19:50.272Z,1.00
2022-09-18T14:22:53.662Z,2.00
2022-09-18T14:25:56.938Z,2.00
2022-09-18T14:29:04.174Z,2.80
2022-09-18T14:32:19.199Z,3.00
2022-09-18T14:35:36.845Z,2.00
2022-09-18T14:38:41.163Z,3.00
2022-09-18T14:41:44.745Z,1.00
2022-09-18T14:44:50.534Z,3.00
2022-09-18T14:47:53.965Z,2.00
2022-09-18T14:51:04.475Z,3.80
2022-09-18T14:54:26.197Z,3.25
2022-09-18T14:57:34.505Z,2.00
2022-09-18T15:00:39.433Z,1.60
2022-09-18T15:03:46.406Z,3.40
2022-09-18T15:06:54.662Z,3.00
2022-09-18T15:10:01.537Z,4.40
2022-09-18T15:13:08.293Z,4.80
2022-09-18T15:16:19.749Z,4.00
2022-09-18T15:19:23.688Z,3.80
2022-09-18T15:22:29.986Z,6.60
2022-09-18T15:25:36.023Z,4.00
2022-09-18T15:28:41.712Z,3.00
2022-09-18T15:31:45.597Z,4.00
2022-09-18T15:34:51.045Z,4.00
2022-09-18T15:38:02.653Z,4.50
2022-09-18T15:41:32.452Z,4.00
2022-09-18T15:45:19.968Z,4.00
2022-09-18T15:48:38.040Z,6.00
2022-09-18T15:51:41.361Z,5.00
2022-09-18T15:55:05.499Z,4.00
2022-09-18T15:58:26.812Z,4.00
2022-09-18T16:01:35.533Z,4.00
2022-09-18T16:04:38.999Z,5.00
2022-09-18T16:07:52.480Z,4.00
2022-09-18T16:10:59.781Z,5.00
2022-09-18T16:14:03.124Z,4.00
2022-09-18T16:17:38.652Z,6.00
2022-09-18T16:20:42.540Z,5.00
2022-09-18T16:23:50.647Z,5.50
2022-09-18T16:27:04.966Z,6.00
2022-09-18T16:30:10.012Z,5.00
2022-09-18T16:33:19.607Z,5.40
2022-09-18T16:36:27.597Z,6.00
2022-09-18T16:39:30.813Z,6.50
2022-09-18T16:42:36.071Z,6.00
2022-09-18T16:45:42.264Z,6.00
2022-09-18T16:48:45.575Z,4.80
2022-09-18T16:51:48.855Z,4.00
2022-09-18T16:54:52.116Z,6.50
2022-09-18T16:57:56.955Z,5.40
2022-09-18T17:01:00.589Z,7.00
2022-09-18T17:04:04.237Z,6.60
2022-09-18T17:07:07.940Z,6.00
2022-09-18T17:10:13.008Z,5.00
2022-09-18T17:13:17.666Z,7.00
2022-09-18T17:16:41.271Z,6.80
2022-09-18T17:19:44.445Z,5.00
2022-09-18T17:22:47.926Z,7.00
2022-09-18T17:25:52.471Z,6.40
2022-09-18T17:28:57.732Z,6.00
2022-09-18T17:32:01.031Z,5.00
2022-09-18T17:35:04.817Z,7.00
2022-09-18T17:38:08.347Z,6.20
2022-09-18T17:41:14.505Z,5.40
2022-09-18T17:44:20.352Z,5.00
2022-09-18T17:47:23.903Z,5.00
2022-09-18T17:50:27.262Z,5.60
2022-09-18T17:53:31.332Z,5.40
2022-09-18T17:56:35.079Z,5.00
2022-09-18T17:59:40.419Z,6.00
2022-09-18T18:02:43.715Z,6.00
2022-09-18T18:05:52.587Z,7.00
2022-09-18T18:08:56.507Z,7.00
2022-09-18T18:11:59.760Z,6.00
2022-09-18T18:15:04.956Z,5.00
2022-09-18T18:18:08.387Z,6.25
2022-09-18T18:21:12.249Z,5.40
2022-09-18T18:24:18.454Z,7.00
2022-09-18T18:27:22.479Z,6.75
2022-09-18T18:30:27.582Z,7.25
2022-09-18T18:33:32.347Z,6.00
2022-09-18T18:36:35.579Z,7.00
2022-09-18T18:39:38.760Z,6.00
2022-09-18T18:42:41.962Z,6.60
2022-09-18T18:45:53.928Z,7.00
2022-09-18T18:49:01.946Z,7.00
2022-09-18T18:52:05.360Z,6.60
2022-09-18T18:55:08.947Z,6.00
2022-09-18T18:58:12.592Z,7.20
2022-09-18T19:01:19.140Z,6.60
2022-09-18T19:04:22.707Z,7.00
2022-09-18T19:07:26.349Z,6.60
2022-09-18T19:10:29.881Z,7.00
2022-09-18T19:13:39.544Z,8.00
2022-09-18T19:16:44.945Z,8.00
2022-09-18T19:19:48.761Z,6.40
2022-09-18T19:22:56.867Z,8.00
2022-09-18T19:26:02.182Z,6.00
2022-09-18T19:29:10.329Z,6.20
2022-09-18T19:32:17.721Z,8.60
2022-09-18T19:35:21.101Z,8.40
2022-09-18T19:38:25.604Z,8.00
2022-09-18T19:41:39.965Z,7.20
2022-09-18T19:44:48.110Z,7.00
2022-09-18T19:47:54.376Z,8.00
2022-09-18T19:50:57.645Z,7.00
2022-09-18T19:54:00.933Z,7.00
2022-09-18T19:57:04.280Z,6.00
2022-09-18T20:00:08.919Z,7.00
2022-09-18T20:03:16.990Z,8.00
2022-09-18T20:06:20.265Z,7.00
2022-09-18T20:09:28.833Z,6.00
2022-09-18T20:12:35.441Z,7.00
2022-09-18T20:15:39.130Z,5.00
2022-09-18T20:18:46.176Z,5.40
2022-09-18T20:21:50.465Z,5.60
2022-09-18T20:24:54.007Z,7.00
2022-09-18T20:27:57.336Z,8.80
2022-09-18T20:31:03.007Z,6.00
2022-09-18T20:34:07.929Z,7.00
2022-09-18T20:37:12.575Z,6.75
2022-09-18T20:40:16.053Z,4.80
2022-09-18T20:43:19.613Z,6.00
2022-09-18T20:46:24.108Z,8.40
2022-09-18T20:49:32.487Z,5.20
2022-09-18T20:52:37.473Z,5.00
2022-09-18T20:55:40.724Z,5.50
2022-09-18T20:58:44.309Z,5.60
2022-09-18T21:01:48.285Z,5.00
2022-09-18T21:04:54.623Z,5.75
2022-09-18T21:08:03.220Z,5.00
2022-09-18T21:11:06.688Z,6.25
2022-09-18T21:14:12.826Z,4.80
2022-09-18T21:17:16.112Z,4.00
2022-09-18T21:20:21.758Z,5.00
2022-09-18T21:23:42.813Z,6.00
2022-09-18T21:26:48.117Z,4.20
2022-09-18T21:29:51.397Z,5.80
2022-09-18T21:32:55.828Z,6.00
2022-09-18T21:36:00.597Z,5.00
2022-09-18T21:39:03.899Z,5.00
2022-09-18T21:42:09.662Z,5.00
2022-09-18T21:45:20.302Z,6.20
2022-09-18T21:48:24.012Z,4.00
2022-09-18T21:51:28.675Z,5.60
2022-09-18T21:54:32.748Z,4.75
2022-09-18T21:57:36.927Z,4.00
2022-09-18T22:00:40.220Z,6.00
2022-09-18T22:03:50.828Z,5.00
2022-09-18T22:06:57.522Z,4.00
2022-09-18T22:10:00.839Z,6.00
2022-09-18T22:13:04.383Z,6.00
2022-09-18T22:16:07.995Z,5.00
2022-09-18T22:19:15.286Z,5.00
2022-09-18T22:22:20.027Z,4.80
2022-09-18T22:25:23.520Z,4.00
2022-09-18T22:28:26.659Z,4.80
2022-09-18T22:31:30.235Z,4.00
2022-09-18T22:34:35.398Z,5.00
2022-09-18T22:37:39.838Z,5.00
2022-09-18T22:40:43.168Z,5.60
2022-09-18T22:43:46.311Z,4.00
2022-09-18T22:46:52.145Z,5.00
2022-09-18T22:49:55.530Z,5.25
2022-09-18T22:53:00.177Z,5.00
2022-09-18T22:56:05.070Z,4.00
2022-09-18T22:59:08.919Z,6.00
2022-09-18T23:02:12.269Z,4.00
2022-09-18T23:05:16.308Z,6.00
2022-09-18T23:08:21.003Z,3.00
2022-09-18T23:11:26.577Z,4.60
2022-09-18T23:14:31.495Z,5.00
2022-09-18T23:17:35.041Z,4.50
2022-09-18T23:20:38.215Z,7.00
2022-09-18T23:23:45.389Z,5.00
2022-09-18T23:26:50.723Z,4.50
2022-09-18T23:29:54.553Z,4.20
2022-09-18T23:32:57.775Z,5.00
2022-09-18T23:36:09.176Z,7.00
2022-09-18T23:39:18.932Z,4.00
2022-09-18T23:42:22.268Z,5.00
2022-09-18T23:45:25.708Z,6.00
2022-09-18T23:48:30.098Z,5.00
2022-09-18T23:51:35.993Z,4.60
2022-09-18T23:54:40.668Z,5.00
2022-09-18T23:57:43.930Z,5.00
